createdAt,value
2022-09-23T00:01:12.039Z,35.35
2022-09-23T00:03:47.552Z,68.05
2022-09-23T00:06:22.601Z,39.70
2022-09-23T00:08:50.340Z,31.88
2022-09-23T00:11:20.422Z,33.45
2022-09-23T00:13:50.007Z,37.10
2022-09-23T00:16:20.784Z,36.45
2022-09-23T00:18:49.548Z,30.55
2022-09-23T00:21:16.990Z,34.65
2022-09-23T00:23:44.273Z,29.65
2022-09-23T00:26:13.462Z,36.80
2022-09-23T00:28:40.884Z,30.58
2022-09-23T00:31:28.134Z,34.05
2022-09-23T00:34:00.007Z,37.75
2022-09-23T00:36:28.551Z,28.38
2022-09-23T00:38:55.569Z,36.40
2022-09-23T00:41:22.679Z,30.63
2022-09-23T00:43:53.211Z,33.10
2022-09-23T00:46:28.943Z,33.70
2022-09-23T00:49:05.585Z,32.70
2022-09-23T00:51:37.193Z,28.90
2022-09-23T00:54:06.481Z,28.92
2022-09-23T00:56:35.986Z,27.63
2022-09-23T00:59:03.451Z,31.85
2022-09-23T01:01:30.552Z,30.55
2022-09-23T01:03:57.738Z,20.35
2022-09-23T01:06:25.612Z,22.75
2022-09-23T01:08:52.924Z,24.60
2022-09-23T01:11:45.478Z,21.77
2022-09-23T01:14:38.416Z,20.80
2022-09-23T01:17:05.356Z,23.77
2022-09-23T01:19:50.685Z,21.42
2022-09-23T01:22:32.677Z,19.15
2022-09-23T01:25:24.443Z,21.05
2022-09-23T01:28:18.514Z,21.02
2022-09-23T01:31:01.592Z,22.85
2022-09-23T01:33:37.390Z,19.75
2022-09-23T01:36:11.172Z,19.83
2022-09-23T01:38:41.049Z,22.55
2022-09-23T01:44:04.206Z,23.20
2022-09-23T01:46:42.869Z,19.35
2022-09-23T01:49:19.568Z,19.17
2022-09-23T01:52:07.896Z,22.17
2022-09-23T01:54:50.916Z,23.35
2022-09-23T01:57:49.881Z,20.83
2022-09-23T02:00:18.586Z,20.27
2022-09-23T02:02:53.413Z,21.63
2022-09-23T02:05:39.900Z,23.17
2022-09-23T02:08:17.829Z,19.25
2022-09-23T02:10:49.580Z,21.70
2022-09-23T02:13:40.261Z,21.70
2022-09-23T02:16:16.525Z,21.60
2022-09-23T02:19:04.425Z,20.73
2022-09-23T02:21:40.885Z,19.90
2022-09-23T02:24:30.257Z,19.27
2022-09-23T02:27:07.109Z,18.77
2022-09-23T02:29:45.934Z,21.73
2022-09-23T02:32:38.980Z,19.60
2022-09-23T02:35:09.277Z,22.02
2022-09-23T02:37:53.492Z,22.08
2022-09-23T02:40:23.736Z,19.58
2022-09-23T02:43:15.346Z,22.63
2022-09-23T02:45:42.341Z,21.13
2022-09-23T02:48:18.888Z,23.38
2022-09-23T02:50:47.821Z,21.33
2022-09-23T02:53:18.651Z,20.70
2022-09-23T02:55:46.013Z,26.20
2022-09-23T02:58:14.331Z,22.95
2022-09-23T03:01:06.426Z,20.90
2022-09-23T03:04:05.220Z,23.42
2022-09-23T03:07:00.864Z,19.52
2022-09-23T03:09:52.603Z,21.77
2022-09-23T03:12:25.376Z,20.27
2022-09-23T03:15:02.203Z,21.98
2022-09-23T03:17:47.936Z,21.20
2022-09-23T03:20:46.930Z,20.92
2022-09-23T03:23:15.665Z,23.65
2022-09-23T03:25:47.458Z,20.55
2022-09-23T03:28:17.842Z,21.10
2022-09-23T03:30:45.384Z,20.08
2022-09-23T03:33:16.824Z,18.98
2022-09-23T03:36:16.259Z,22.33
2022-09-23T03:38:48.533Z,24.90
2022-09-23T03:41:20.853Z,18.65
2022-09-23T03:43:48.002Z,22.20
2022-09-23T03:46:16.969Z,20.08
2022-09-23T03:48:45.178Z,27.73
2022-09-23T03:51:22.749Z,24.63
2022-09-23T03:53:52.964Z,24.60
2022-09-23T03:56:19.926Z,29.17
2022-09-23T03:58:46.715Z,20.80
2022-09-23T04:01:15.021Z,19.40
2022-09-23T04:03:42.151Z,18.65
2022-09-23T04:06:09.394Z,18.80
2022-09-23T04:08:37.393Z,19.70
2022-09-23T04:11:05.036Z,24.15
2022-09-23T04:13:32.141Z,20.05
2022-09-23T04:15:59.285Z,25.30
2022-09-23T04:18:26.130Z,23.33
2022-09-23T04:20:57.838Z,20.85
2022-09-23T04:23:26.160Z,19.98
2022-09-23T04:25:53.601Z,18.55
2022-09-23T04:28:21.174Z,19.60
2022-09-23T04:30:49.458Z,17.20
2022-09-23T04:33:17.053Z,19.70
2022-09-23T04:35:43.973Z,23.58
2022-09-23T04:38:17.742Z,19.00
2022-09-23T04:40:45.682Z,20.98
2022-09-23T04:43:13.700Z,19.05
2022-09-23T04:45:40.588Z,20.05
2022-09-23T04:48:09.697Z,22.20
2022-09-23T04:50:37.721Z,18.05
2022-09-23T04:53:05.670Z,21.83
2022-09-23T04:55:32.927Z,21.38
2022-09-23T04:57:59.724Z,21.00
2022-09-23T05:00:27.423Z,24.02
2022-09-23T05:02:54.446Z,18.85
2022-09-23T05:05:23.754Z,21.80
2022-09-23T05:07:51.831Z,21.33
2022-09-23T05:10:18.748Z,24.85
2022-09-23T05:12:45.518Z,20.23
2022-09-23T05:15:13.319Z,21.95
2022-09-23T05:17:40.094Z,19.08
2022-09-23T05:20:07.702Z,19.33
2022-09-23T05:22:45.549Z,22.75
2022-09-23T05:25:12.345Z,20.30
2022-09-23T05:27:39.288Z,24.42
2022-09-23T05:30:06.932Z,19.58
2022-09-23T05:32:33.920Z,20.95
2022-09-23T05:35:00.796Z,20.58
2022-09-23T05:37:27.566Z,21.40
2022-09-23T05:39:54.291Z,20.40
2022-09-23T05:42:21.481Z,19.35
2022-09-23T05:44:48.339Z,22.38
2022-09-23T05:47:15.638Z,26.10
2022-09-23T05:49:59.067Z,24.55
2022-09-23T05:52:27.175Z,21.55
2022-09-23T05:54:54.093Z,21.05
2022-09-23T05:57:21.662Z,23.55
2022-09-23T05:59:48.509Z,20.02
2022-09-23T06:02:15.622Z,19.35
2022-09-23T06:04:43.177Z,23.50
2022-09-23T06:07:10.665Z,21.42
2022-09-23T06:09:37.705Z,19.30
2022-09-23T06:12:05.195Z,22.52
2022-09-23T06:14:31.947Z,18.05
2022-09-23T06:16:59.216Z,24.02
2022-09-23T06:19:26.034Z,21.25
2022-09-23T06:21:53.004Z,22.55
2022-09-23T06:24:23.774Z,20.55
2022-09-23T06:26:52.738Z,20.60
2022-09-23T06:29:19.570Z,21.95
2022-09-23T06:31:46.493Z,22.55
2022-09-23T06:34:14.718Z,26.10
2022-09-23T06:36:46.449Z,25.05
2022-09-23T06:39:16.789Z,20.65
2022-09-23T06:41:45.546Z,24.98
2022-09-23T06:44:13.697Z,29.70
2022-09-23T06:46:41.197Z,29.65
2022-09-23T06:49:08.017Z,29.85
2022-09-23T06:51:34.834Z,21.00
2022-09-23T06:54:01.843Z,20.27
2022-09-23T06:56:30.156Z,20.73
2022-09-23T06:58:59.381Z,22.90
2022-09-23T07:01:26.739Z,21.88
2022-09-23T07:03:54.352Z,21.90
2022-09-23T07:06:21.224Z,21.55
2022-09-23T07:08:48.602Z,22.15
2022-09-23T07:11:16.351Z,30.02
2022-09-23T07:13:43.342Z,21.52
2022-09-23T07:16:12.267Z,21.20
2022-09-23T07:18:39.744Z,20.10
2022-09-23T07:21:09.181Z,22.88
2022-09-23T07:23:37.955Z,24.48
2022-09-23T07:26:05.217Z,21.90
2022-09-23T07:28:32.423Z,24.90
2022-09-23T07:31:13.904Z,25.50
2022-09-23T07:33:44.351Z,22.60
2022-09-23T07:36:14.388Z,22.05
2022-09-23T07:38:45.277Z,26.30
2022-09-23T07:41:14.987Z,20.20
2022-09-23T07:43:41.763Z,20.95
2022-09-23T07:46:12.400Z,22.30
2022-09-23T07:48:41.018Z,21.75
2022-09-23T07:51:23.690Z,21.73
2022-09-23T07:53:52.447Z,24.05
2022-09-23T07:56:21.623Z,22.02
2022-09-23T07:59:08.903Z,19.98
2022-09-23T08:01:39.237Z,30.77
2022-09-23T08:04:26.114Z,19.40
2022-09-23T08:06:55.900Z,23.33
2022-09-23T08:11:51.197Z,21.95
2022-09-23T08:14:18.731Z,21.42
2022-09-23T08:16:47.223Z,22.70
2022-09-23T08:19:16.329Z,28.90
2022-09-23T08:21:44.303Z,20.98
2022-09-23T08:24:17.120Z,22.63
2022-09-23T08:26:44.938Z,27.33
2022-09-23T08:29:16.773Z,19.75
2022-09-23T08:31:43.983Z,25.85
2022-09-23T08:34:10.994Z,24.35
2022-09-23T08:36:38.348Z,19.88
2022-09-23T08:39:06.835Z,22.02
2022-09-23T08:41:49.416Z,21.52
2022-09-23T08:44:26.835Z,19.92
2022-09-23T08:47:04.091Z,22.90
2022-09-23T08:49:39.642Z,24.38
2022-09-23T08:52:24.516Z,19.85
2022-09-23T08:54:55.301Z,20.88
2022-09-23T08:57:38.677Z,24.63
2022-09-23T09:00:06.369Z,18.33
2022-09-23T09:02:36.480Z,21.50
2022-09-23T09:05:10.294Z,18.42
2022-09-23T09:07:40.406Z,17.33
2022-09-23T09:10:10.124Z,17.10
2022-09-23T09:12:43.436Z,20.55
2022-09-23T09:15:13.280Z,22.02
2022-09-23T09:17:48.625Z,17.55
2022-09-23T09:20:16.933Z,15.38
2022-09-23T09:22:52.969Z,16.87
2022-09-23T09:25:30.727Z,18.25
2022-09-23T09:28:00.794Z,16.38
2022-09-23T09:30:28.529Z,17.70
2022-09-23T09:33:02.269Z,15.45
2022-09-23T09:35:40.990Z,16.70
2022-09-23T09:38:08.504Z,14.82
2022-09-23T09:40:35.452Z,14.95
2022-09-23T09:43:04.793Z,15.88
2022-09-23T09:45:58.027Z,14.73
2022-09-23T09:48:40.200Z,15.93
2022-09-23T09:51:21.907Z,15.10
2022-09-23T09:53:52.152Z,15.25
2022-09-23T09:56:27.572Z,14.63
2022-09-23T09:58:59.100Z,13.88
2022-09-23T10:01:32.036Z,14.20
2022-09-23T10:04:02.012Z,14.55
2022-09-23T10:06:32.761Z,14.50
2022-09-23T10:09:05.767Z,16.23
2022-09-23T10:11:33.438Z,20.05
2022-09-23T10:14:03.040Z,17.15
2022-09-23T10:16:32.047Z,15.65
2022-09-23T10:21:39.507Z,18.30
2022-09-23T10:24:08.072Z,18.40
2022-09-23T10:26:44.314Z,17.27
2022-09-23T10:29:48.446Z,16.38
2022-09-23T10:32:26.321Z,16.20
2022-09-23T10:35:14.602Z,15.57
2022-09-23T10:37:44.361Z,17.05
2022-09-23T10:40:49.548Z,14.32
2022-09-23T10:44:01.221Z,16.13
2022-09-23T10:46:40.161Z,14.88
2022-09-23T10:49:29.376Z,16.50
2022-09-23T10:51:56.076Z,16.85
2022-09-23T10:54:51.686Z,16.33
2022-09-23T10:57:43.233Z,17.05
2022-09-23T11:00:38.040Z,15.55
2022-09-23T11:03:36.045Z,14.82
2022-09-23T11:06:20.854Z,16.95
2022-09-23T11:09:06.026Z,16.98
2022-09-23T11:11:44.661Z,15.27
2022-09-23T11:14:19.468Z,16.83
2022-09-23T11:17:14.872Z,14.90
2022-09-23T11:20:14.902Z,15.15
2022-09-23T11:23:09.668Z,16.67
2022-09-23T11:26:04.271Z,16.85
2022-09-23T11:28:55.820Z,17.20
2022-09-23T11:31:31.680Z,15.70
2022-09-23T11:34:25.718Z,16.10
2022-09-23T11:37:02.536Z,18.38
2022-09-23T11:39:42.253Z,17.00
2022-09-23T11:42:18.095Z,17.35
2022-09-23T11:44:58.870Z,14.77
2022-09-23T11:47:39.787Z,16.15
2022-09-23T11:50:40.609Z,16.73
2022-09-23T11:53:35.211Z,16.95
2022-09-23T11:56:35.340Z,15.60
2022-09-23T11:59:32.418Z,15.95
2022-09-23T12:02:20.346Z,16.20
2022-09-23T12:04:58.696Z,16.88
2022-09-23T12:07:48.778Z,17.27
2022-09-23T12:10:16.339Z,16.58
2022-09-23T12:12:51.674Z,16.90
2022-09-23T12:15:31.236Z,16.00
2022-09-23T12:18:04.161Z,15.32
2022-09-23T12:21:04.328Z,13.38
2022-09-23T12:24:09.654Z,14.60
2022-09-23T12:26:39.240Z,13.80
2022-09-23T12:29:07.257Z,15.52
2022-09-23T12:31:41.129Z,16.60
2022-09-23T12:34:34.531Z,13.20
2022-09-23T12:37:04.335Z,13.18
2022-09-23T12:39:35.536Z,13.25
2022-09-23T12:42:05.681Z,13.70
2022-09-23T12:44:45.168Z,13.30
2022-09-23T12:47:14.776Z,13.52
2022-09-23T12:49:43.801Z,15.10
2022-09-23T12:52:16.610Z,14.98
2022-09-23T12:54:56.690Z,12.07
2022-09-23T12:57:35.914Z,12.73
2022-09-23T13:00:13.001Z,11.88
2022-09-23T13:03:07.771Z,11.95
2022-09-23T13:06:03.897Z,12.13
2022-09-23T13:08:32.752Z,11.05
2022-09-23T13:11:05.952Z,11.18
2022-09-23T13:13:43.023Z,11.43
2022-09-23T13:16:14.399Z,12.18
2022-09-23T13:19:13.474Z,10.82
2022-09-23T13:21:43.225Z,12.93
2022-09-23T13:24:16.015Z,12.20
2022-09-23T13:26:52.026Z,14.93
2022-09-23T13:29:51.968Z,11.02
2022-09-23T13:32:21.239Z,11.48
2022-09-23T13:35:01.793Z,11.00
2022-09-23T13:37:41.219Z,12.52
2022-09-23T13:40:26.746Z,10.95
2022-09-23T13:43:11.972Z,11.52
2022-09-23T13:45:43.302Z,13.32
2022-09-23T13:48:15.626Z,11.70
2022-09-23T13:50:49.238Z,10.43
2022-09-23T13:53:32.871Z,10.73
2022-09-23T13:56:13.067Z,13.25
2022-09-23T13:58:40.731Z,10.75
2022-09-23T14:01:22.916Z,10.77
2022-09-23T14:03:51.652Z,12.88
2022-09-23T14:06:18.929Z,10.35
2022-09-23T14:08:48.648Z,10.25
2022-09-23T14:11:21.822Z,10.27
2022-09-23T14:14:01.269Z,10.70
2022-09-23T14:16:39.929Z,11.45
2022-09-23T14:19:08.258Z,11.45
2022-09-23T14:21:40.689Z,12.50
2022-09-23T14:24:10.633Z,10.27
2022-09-23T14:26:39.699Z,13.30
2022-09-23T14:29:28.893Z,12.50
2022-09-23T14:32:00.890Z,10.95
2022-09-23T14:35:04.770Z,14.98
2022-09-23T14:38:02.114Z,11.73
2022-09-23T14:40:30.491Z,11.40
2022-09-23T14:43:17.227Z,11.02
2022-09-23T14:45:48.022Z,12.23
2022-09-23T14:48:23.240Z,9.95
2022-09-23T14:50:55.783Z,10.90
2022-09-23T14:53:25.359Z,12.68
2022-09-23T14:56:07.576Z,9.88
2022-09-23T14:59:00.838Z,11.20
2022-09-23T15:01:34.107Z,10.52
2022-09-23T15:04:12.857Z,11.95
2022-09-23T15:06:43.285Z,10.15
2022-09-23T15:09:17.710Z,11.07
2022-09-23T15:11:44.708Z,9.52
2022-09-23T15:14:36.159Z,11.52
2022-09-23T15:17:01.527Z,11.60
2022-09-23T15:19:30.257Z,13.05
2022-09-23T15:21:57.302Z,10.63
2022-09-23T15:24:38.482Z,11.25
2022-09-23T15:27:21.121Z,11.07
2022-09-23T15:29:48.936Z,11.77
2022-09-23T15:32:15.655Z,12.23
2022-09-23T15:34:42.532Z,11.25
2022-09-23T15:37:15.165Z,10.45
2022-09-23T15:39:41.967Z,12.07
2022-09-23T15:42:10.349Z,15.48
2022-09-23T15:44:38.218Z,10.60
2022-09-23T15:47:05.235Z,11.05
2022-09-23T15:49:36.454Z,12.07
2022-09-23T15:52:07.250Z,11.38
2022-09-23T15:54:34.028Z,11.35
2022-09-23T15:57:01.455Z,11.50
2022-09-23T15:59:29.081Z,11.88
2022-09-23T16:01:57.186Z,11.65
2022-09-23T16:04:25.663Z,11.15
2022-09-23T16:06:53.530Z,11.93
2022-09-23T16:09:20.244Z,11.45
2022-09-23T16:11:50.129Z,10.80
2022-09-23T16:14:18.278Z,11.05
2022-09-23T16:16:47.930Z,10.85
2022-09-23T16:19:15.907Z,11.65
2022-09-23T16:21:43.470Z,10.32
2022-09-23T16:24:18.773Z,11.40
2022-09-23T16:26:47.635Z,12.98
2022-09-23T16:29:15.023Z,14.13
2022-09-23T16:31:41.935Z,10.65
2022-09-23T16:34:08.987Z,9.82
2022-09-23T16:36:42.141Z,9.60
2022-09-23T16:39:13.125Z,9.80
2022-09-23T16:41:41.644Z,10.43
2022-09-23T16:44:10.811Z,10.37
2022-09-23T16:46:37.664Z,12.00
2022-09-23T16:49:07.318Z,14.57
2022-09-23T16:51:38.699Z,14.95
2022-09-23T16:54:10.433Z,10.27
2022-09-23T16:56:41.923Z,11.02
2022-09-23T16:59:08.925Z,10.77
2022-09-23T17:01:54.716Z,10.15
2022-09-23T17:04:22.705Z,9.60
2022-09-23T17:06:51.589Z,10.20
2022-09-23T17:09:20.802Z,12.43
2022-09-23T17:11:57.217Z,11.52
2022-09-23T17:14:24.160Z,10.30
2022-09-23T17:16:51.170Z,13.27
2022-09-23T17:19:17.982Z,11.50
2022-09-23T17:21:45.128Z,12.93
2022-09-23T17:24:11.989Z,10.32
2022-09-23T17:26:38.849Z,11.73
2022-09-23T17:29:05.975Z,11.25
2022-09-23T17:31:33.013Z,11.13
2022-09-23T17:34:01.062Z,13.30
2022-09-23T17:36:28.413Z,12.93
2022-09-23T17:38:55.614Z,11.82
2022-09-23T17:41:22.842Z,10.60
2022-09-23T17:43:54.851Z,12.55
2022-09-23T17:46:21.608Z,10.40
2022-09-23T17:48:48.764Z,12.55
2022-09-23T17:51:17.713Z,12.52
2022-09-23T17:53:47.384Z,11.75
2022-09-23T17:56:21.483Z,13.65
2022-09-23T17:58:50.009Z,11.20
2022-09-23T18:01:22.624Z,11.73
2022-09-23T18:03:55.104Z,14.27
2022-09-23T18:06:24.222Z,11.48
2022-09-23T18:08:52.103Z,11.98
2022-09-23T18:11:27.476Z,12.27
2022-09-23T18:13:58.958Z,11.85
2022-09-23T18:16:28.837Z,11.52
2022-09-23T18:18:58.244Z,10.55
2022-09-23T18:21:27.748Z,13.20
2022-09-23T18:23:59.849Z,11.35
2022-09-23T18:26:34.193Z,13.10
2022-09-23T18:29:01.791Z,11.98
2022-09-23T18:31:34.737Z,10.15
2022-09-23T18:34:04.001Z,9.23
2022-09-23T18:36:30.904Z,9.05
2022-09-23T18:38:57.747Z,10.48
2022-09-23T18:41:24.687Z,11.85
2022-09-23T18:43:51.515Z,9.75
2022-09-23T18:46:21.211Z,12.07
2022-09-23T18:49:07.198Z,9.52
2022-09-23T18:51:37.031Z,10.55
2022-09-23T18:54:06.649Z,9.60
2022-09-23T18:56:44.829Z,9.38
2022-09-23T18:59:17.848Z,8.70
2022-09-23T19:01:46.093Z,10.52
2022-09-23T19:04:14.336Z,11.63
2022-09-23T19:06:42.184Z,11.65
2022-09-23T19:09:09.262Z,11.00
2022-09-23T19:11:38.541Z,14.82
2022-09-23T19:14:07.617Z,11.00
2022-09-23T19:16:36.589Z,8.68
2022-09-23T19:19:05.502Z,10.13
2022-09-23T19:21:33.545Z,10.25
2022-09-23T19:24:05.933Z,10.52
2022-09-23T19:26:38.871Z,10.07
2022-09-23T19:29:08.643Z,9.95
2022-09-23T19:34:13.794Z,10.63
2022-09-23T19:36:43.142Z,10.27
2022-09-23T19:39:17.645Z,11.50
2022-09-23T19:41:45.267Z,15.48
2022-09-23T19:44:15.676Z,9.18
2022-09-23T19:46:55.934Z,9.27
2022-09-23T19:49:24.987Z,8.45
2022-09-23T19:51:53.278Z,10.23
2022-09-23T19:54:21.069Z,10.00
2022-09-23T19:56:51.257Z,9.75
2022-09-23T19:59:19.315Z,9.90
2022-09-23T20:01:47.843Z,11.07
2022-09-23T20:04:15.935Z,9.48
2022-09-23T20:06:43.520Z,9.88
2022-09-23T20:09:10.628Z,10.75
2022-09-23T20:11:38.216Z,9.75
2022-09-23T20:14:06.614Z,10.13
2022-09-23T20:16:35.920Z,12.55
2022-09-23T20:19:04.531Z,9.93
2022-09-23T20:21:32.239Z,9.63
2022-09-23T20:23:59.458Z,9.88
2022-09-23T20:26:44.980Z,9.30
2022-09-23T20:29:12.296Z,9.32
2022-09-23T20:31:41.759Z,10.30
2022-09-23T20:34:10.888Z,10.00
2022-09-23T20:36:40.428Z,10.20
2022-09-23T20:39:07.655Z,10.25
2022-09-23T20:41:38.181Z,10.10
2022-09-23T20:44:13.995Z,11.85
2022-09-23T20:46:48.539Z,10.07
2022-09-23T20:49:17.535Z,10.60
2022-09-23T20:51:44.665Z,10.88
2022-09-23T20:54:12.492Z,11.90
2022-09-23T20:56:39.679Z,11.43
2022-09-23T20:59:06.690Z,12.15
2022-09-23T21:01:35.401Z,10.43
2022-09-23T21:04:05.038Z,9.57
2022-09-23T21:06:34.025Z,11.20
2022-09-23T21:09:01.146Z,11.43
2022-09-23T21:11:29.292Z,10.18
2022-09-23T21:13:56.733Z,10.25
2022-09-23T21:16:24.684Z,10.10
2022-09-23T21:18:52.030Z,10.25
2022-09-23T21:21:20.097Z,10.95
2022-09-23T21:23:48.050Z,10.93
2022-09-23T21:26:20.591Z,11.38
2022-09-23T21:28:49.782Z,10.25
2022-09-23T21:31:25.906Z,10.23
2022-09-23T21:33:59.415Z,13.77
2022-09-23T21:36:28.314Z,11.48
2022-09-23T21:38:59.219Z,10.65
2022-09-23T21:41:26.130Z,9.80
2022-09-23T21:43:53.207Z,11.05
2022-09-23T21:46:21.520Z,9.65
2022-09-23T21:49:03.622Z,10.25
2022-09-23T21:51:38.073Z,9.68
2022-09-23T21:54:06.446Z,11.00
2022-09-23T21:56:36.473Z,10.02
2022-09-23T21:59:04.196Z,11.00
2022-09-23T22:01:36.647Z,10.95
2022-09-23T22:04:08.750Z,11.15
2022-09-23T22:06:38.788Z,11.52
2022-09-23T22:09:13.158Z,10.48
2022-09-23T22:11:59.333Z,11.15
2022-09-23T22:17:10.577Z,11.52
2022-09-23T22:19:42.995Z,10.10
2022-09-23T22:22:14.727Z,11.70
2022-09-23T22:24:45.619Z,10.48
2022-09-23T22:27:15.398Z,9.93
2022-09-23T22:32:43.808Z,10.20
2022-09-23T22:35:19.138Z,10.18
2022-09-23T22:37:46.362Z,9.60
2022-09-23T22:40:15.110Z,11.32
2022-09-23T22:42:42.525Z,11.95
2022-09-23T22:45:11.326Z,12.00
2022-09-23T22:47:39.923Z,10.40
2022-09-23T22:50:09.135Z,11.30
2022-09-23T22:52:36.660Z,11.07
2022-09-23T22:55:04.555Z,10.93
2022-09-23T22:57:31.431Z,11.82
2022-09-23T22:59:58.279Z,12.32
2022-09-23T23:02:25.129Z,12.05
2022-09-23T23:04:51.976Z,11.38
2022-09-23T23:07:21.367Z,10.75
2022-09-23T23:09:50.426Z,11.13
2022-09-23T23:12:19.116Z,10.90
2022-09-23T23:14:48.466Z,11.88
2022-09-23T23:17:15.521Z,10.43
2022-09-23T23:19:42.443Z,10.80
2022-09-23T23:22:09.314Z,11.45
2022-09-23T23:24:36.020Z,11.52
2022-09-23T23:27:02.749Z,11.63
2022-09-23T23:29:29.564Z,11.43
2022-09-23T23:31:56.322Z,13.07
2022-09-23T23:34:23.236Z,12.25
2022-09-23T23:36:56.794Z,10.18
2022-09-23T23:39:27.015Z,11.52
2022-09-23T23:41:55.460Z,11.75
2022-09-23T23:44:24.021Z,10.13
2022-09-23T23:46:51.527Z,11.68
2022-09-23T23:49:18.357Z,10.88
2022-09-23T23:51:45.825Z,11.43
2022-09-23T23:54:12.868Z,12.18
2022-09-23T23:56:39.652Z,13.32
2022-09-23T23:59:06.736Z,10.50
